If you wish to contribute or participate in the discussions about articles you are invited to join SKYbrary as a registered user

 Actions

Bangkok/Suvarnabhumi International Airport

From SKYbrary Wiki

VTBS
Airport
ICAO: VTBS – IATA: BKK
Summary
Name Bangkok/Suvarnabhumi International Airport
Region Asia and Pacific
Territory Thailand TH.gif
Location Bang Phli, Samut Prakan
Serving Bangkok
Elevation 1.524 m
5 ft
5 ft1.524 m
Coordinates 13° 41' 32.27" N, 100° 45' 2.51" E
Runways
Designator Length Width Surface ROPS
01L/19R 3700 m12,139.108 ft
60 m196.85 ft
ASP yes/yes
01R/19L 4000 m13,123.36 ft
60 m196.85 ft
ASP yes/yes


METAR
Observation VTBS 201430Z 10005KT 070V160 9999 -RA SCT012 SCT025 BKN090 26/26 Q1010 NOSIG
Station Chon Buri
Date/Time 20 September 2020 14:30:00
Wind direction 100°
Wind speed 05 kts
Lowest cloud amount scattered clouds
Temperature 26°C
Dew point 26°C
Humidity 100%
QNH 1010 hPa
Weather condition light rain

LOS
Tag(s) Parallel Runway Operation
WX
Tag(s) Cumulonimbus

Bangkok/Suvarnabhumi International Airport

ICAO: VTBS IATA: BKK

Description

International airport serving the city of Bangkok.

Climatology

Tropical Savanna climate (Köppen climate classification Aw)

Maps

Terrain

Loading map...

Airport Layout

Loading map...


Accidents & Serious Incidents at or in vicinity of VTBS

None on SKYbrary